createdAt,value
2023-04-18T00:01:43.446Z,102119.41
2023-04-18T00:04:28.749Z,102126.41
2023-04-18T00:07:10.646Z,102126.97
2023-04-18T00:10:00.315Z,102122.16
2023-04-18T00:12:40.762Z,102119.47
2023-04-18T00:15:11.281Z,102132.31
2023-04-18T00:17:44.978Z,102133.34
2023-04-18T00:20:27.346Z,102145.22
2023-04-18T00:23:01.051Z,102137.91
2023-04-18T00:25:35.918Z,102130.25
2023-04-18T00:28:23.951Z,102142.03
2023-04-18T00:30:59.519Z,102125.94
2023-04-18T00:33:37.588Z,102130.28
2023-04-18T00:36:12.712Z,102149.84
2023-04-18T00:38:49.391Z,102143.13
2023-04-18T00:41:28.760Z,102148.34
2023-04-18T00:44:14.224Z,102138.94
2023-04-18T00:46:44.608Z,102143.28
2023-04-18T00:49:18.634Z,102145.72
2023-04-18T00:51:51.017Z,102157.72
2023-04-18T00:54:24.108Z,102144.13
2023-04-18T00:56:57.297Z,102130.56
2023-04-18T00:59:52.928Z,102135.84
2023-04-18T01:02:23.574Z,102147.69
2023-04-18T01:05:09.432Z,102149.53
2023-04-18T01:07:53.880Z,102135.09
2023-04-18T01:10:28.730Z,102139.38
2023-04-18T01:13:23.414Z,102146.00
2023-04-18T01:18:45.714Z,102139.28
2023-04-18T01:21:28.888Z,102129.16
2023-04-18T01:24:08.948Z,102139.56
2023-04-18T01:26:39.043Z,102146.81
2023-04-18T01:29:08.521Z,102141.00
2023-04-18T01:31:44.485Z,102138.31
2023-04-18T01:34:19.682Z,102136.47
2023-04-18T01:36:54.914Z,102145.09
2023-04-18T01:39:25.104Z,102142.88
2023-04-18T01:42:27.196Z,102138.66
2023-04-18T01:45:11.180Z,102137.22
2023-04-18T01:47:44.419Z,102134.69
2023-04-18T01:50:15.837Z,102137.19
2023-04-18T01:52:51.658Z,102143.25
2023-04-18T01:55:23.073Z,102140.84
2023-04-18T01:57:55.516Z,102133.13
2023-04-18T02:00:31.961Z,102141.13
2023-04-18T02:03:05.506Z,102143.50
2023-04-18T02:05:32.902Z,102141.06
2023-04-18T02:08:16.809Z,102134.13
2023-04-18T02:10:46.696Z,102123.84
2023-04-18T02:13:27.198Z,102127.94
2023-04-18T02:15:53.981Z,102131.25
2023-04-18T02:18:37.786Z,102129.75
2023-04-18T02:21:11.620Z,102114.19
2023-04-18T02:23:39.085Z,102129.75
2023-04-18T02:26:09.137Z,102123.06
2023-04-18T02:28:41.509Z,102120.41
2023-04-18T02:31:23.507Z,102136.91
2023-04-18T02:33:55.571Z,102126.75
2023-04-18T02:36:33.624Z,102114.78
2023-04-18T02:39:28.089Z,102127.00
2023-04-18T02:41:59.507Z,102123.38
2023-04-18T02:44:34.654Z,102119.22
2023-04-18T02:47:04.445Z,102131.25
2023-04-18T02:49:37.255Z,102127.97
2023-04-18T02:52:22.184Z,102126.91
2023-04-18T02:54:53.916Z,102137.34
2023-04-18T02:57:28.256Z,102135.22
2023-04-18T03:00:09.254Z,102140.56
2023-04-18T03:02:44.118Z,102141.50
2023-04-18T03:05:45.217Z,102152.53
2023-04-18T03:08:15.237Z,102149.06
2023-04-18T03:10:59.493Z,102143.84
2023-04-18T03:13:37.819Z,102138.50
2023-04-18T03:16:08.776Z,102147.22
2023-04-18T03:18:42.686Z,102136.03
2023-04-18T03:21:21.284Z,102132.16
2023-04-18T03:23:51.775Z,102141.00
2023-04-18T03:26:19.715Z,102145.28
2023-04-18T03:28:49.284Z,102143.78
2023-04-18T03:31:20.423Z,102152.22
2023-04-18T03:34:01.486Z,102153.03
2023-04-18T03:36:33.008Z,102155.47
2023-04-18T03:39:08.582Z,102159.03
2023-04-18T03:41:50.100Z,102144.28
2023-04-18T03:44:31.396Z,102140.06
2023-04-18T03:47:03.308Z,102146.19
2023-04-18T03:49:33.208Z,102145.31
2023-04-18T03:52:04.110Z,102156.41
2023-04-18T03:54:31.607Z,102164.22
2023-04-18T03:57:12.152Z,102155.69
2023-04-18T04:00:06.199Z,102145.81
2023-04-18T04:02:33.872Z,102150.38
2023-04-18T04:05:12.449Z,102153.75
2023-04-18T04:08:00.944Z,102149.69
2023-04-18T04:10:31.043Z,102153.94
2023-04-18T04:13:06.959Z,102156.22
2023-04-18T04:15:39.228Z,102155.19
2023-04-18T04:18:19.832Z,102164.00
2023-04-18T04:20:49.710Z,102164.66
2023-04-18T04:23:40.918Z,102169.19
2023-04-18T04:26:15.613Z,102174.13
2023-04-18T04:28:43.023Z,102178.78
2023-04-18T04:31:27.200Z,102169.63
2023-04-18T04:33:53.900Z,102166.22
2023-04-18T04:36:30.492Z,102180.88
2023-04-18T04:39:00.190Z,102182.50
2023-04-18T04:41:27.855Z,102181.28
2023-04-18T04:43:54.610Z,102187.00
2023-04-18T04:49:20.816Z,102187.75
2023-04-18T04:51:52.654Z,102184.13
2023-04-18T04:54:37.397Z,102196.91
2023-04-18T04:57:07.911Z,102177.31
2023-04-18T04:59:37.625Z,102187.41
2023-04-18T05:02:11.023Z,102201.38
2023-04-18T05:04:51.487Z,102196.75
2023-04-18T05:07:18.198Z,102189.72
2023-04-18T05:09:47.950Z,102185.16
2023-04-18T05:12:21.957Z,102198.00
2023-04-18T05:15:03.142Z,102189.41
2023-04-18T05:17:36.523Z,102188.22
2023-04-18T05:20:04.224Z,102196.56
2023-04-18T05:22:31.416Z,102199.66
2023-04-18T05:24:58.814Z,102190.19
2023-04-18T05:27:32.135Z,102192.78
2023-04-18T05:30:03.791Z,102191.78
2023-04-18T05:32:31.614Z,102197.72
2023-04-18T05:34:58.860Z,102190.34
2023-04-18T05:37:29.129Z,102197.59
2023-04-18T05:40:05.776Z,102203.88
2023-04-18T05:42:38.223Z,102208.53
2023-04-18T05:45:14.927Z,102194.78
2023-04-18T05:47:43.045Z,102202.53
2023-04-18T05:50:10.603Z,102200.53
2023-04-18T05:52:41.458Z,102217.16
2023-04-18T05:55:09.131Z,102215.28
2023-04-18T05:57:42.568Z,102209.97
2023-04-18T06:00:20.263Z,102211.63
2023-04-18T06:02:47.491Z,102208.69
2023-04-18T06:05:18.167Z,102214.88
2023-04-18T06:07:45.720Z,102206.16
2023-04-18T06:10:16.226Z,102216.47
2023-04-18T06:12:43.198Z,102217.94
2023-04-18T06:15:16.612Z,102224.00
2023-04-18T06:17:46.565Z,102225.63
2023-04-18T06:20:16.664Z,102218.63
2023-04-18T06:22:50.103Z,102224.72
2023-04-18T06:25:16.853Z,102230.78
2023-04-18T06:27:45.201Z,102237.22
2023-04-18T06:30:15.136Z,102228.44
2023-04-18T06:32:42.398Z,102220.19
2023-04-18T06:35:09.669Z,102217.66
2023-04-18T06:37:36.405Z,102221.88
2023-04-18T06:40:04.238Z,102231.41
2023-04-18T06:42:36.811Z,102241.28
2023-04-18T06:45:04.451Z,102248.56
2023-04-18T06:47:39.857Z,102237.47
2023-04-18T06:50:09.928Z,102247.59
2023-04-18T06:52:40.870Z,102251.38
2023-04-18T06:55:11.894Z,102251.03
2023-04-18T06:57:42.705Z,102248.81
2023-04-18T07:00:10.553Z,102252.06
2023-04-18T07:02:41.654Z,102245.56
2023-04-18T07:05:08.758Z,102243.66
2023-04-18T07:07:40.002Z,102248.19
2023-04-18T07:10:13.055Z,102243.81
2023-04-18T07:12:40.264Z,102237.72
2023-04-18T07:15:11.001Z,102256.03
2023-04-18T07:17:43.046Z,102247.06
2023-04-18T07:20:12.302Z,102241.06
2023-04-18T07:22:44.450Z,102257.63
2023-04-18T07:25:19.362Z,102245.16
2023-04-18T07:27:46.725Z,102248.22
2023-04-18T07:30:13.924Z,102252.06
2023-04-18T07:32:40.551Z,102261.97
2023-04-18T07:35:10.122Z,102261.25
2023-04-18T07:37:36.936Z,102259.91
2023-04-18T07:40:05.080Z,102248.91
2023-04-18T07:42:32.048Z,102255.59
2023-04-18T07:44:59.608Z,102252.25
2023-04-18T07:47:29.975Z,102256.47
2023-04-18T07:50:00.911Z,102268.63
2023-04-18T07:52:27.652Z,102260.75
2023-04-18T07:54:54.249Z,102263.56
2023-04-18T07:57:21.128Z,102263.28
2023-04-18T07:59:47.989Z,102268.66
2023-04-18T08:02:21.124Z,102263.13
2023-04-18T08:04:52.493Z,102257.56
2023-04-18T08:07:19.219Z,102268.25
2023-04-18T08:09:45.954Z,102256.94
2023-04-18T08:12:15.748Z,102266.34
2023-04-18T08:14:42.701Z,102261.75
2023-04-18T08:17:09.582Z,102261.88
2023-04-18T08:19:41.957Z,102260.13
2023-04-18T08:22:12.882Z,102260.38
2023-04-18T08:24:39.710Z,102268.13
2023-04-18T08:27:07.293Z,102261.16
2023-04-18T08:29:37.224Z,102267.78
2023-04-18T08:32:07.617Z,102255.75
2023-04-18T08:34:38.200Z,102253.81
2023-04-18T08:37:11.169Z,102254.38
2023-04-18T08:39:41.115Z,102254.47
2023-04-18T08:42:10.538Z,102242.78
2023-04-18T08:44:37.683Z,102249.00
2023-04-18T08:47:07.521Z,102244.00
2023-04-18T08:49:36.810Z,102248.63
2023-04-18T08:52:16.670Z,102253.66
2023-04-18T08:54:45.465Z,102260.91
2023-04-18T08:57:23.803Z,102261.44
2023-04-18T08:59:51.112Z,102256.03
2023-04-18T09:02:19.576Z,102259.84
2023-04-18T09:04:49.205Z,102264.19
2023-04-18T09:07:17.440Z,102259.84
2023-04-18T09:09:50.093Z,102262.81
2023-04-18T09:12:19.593Z,102258.38
2023-04-18T09:14:47.187Z,102256.41
2023-04-18T09:17:22.001Z,102252.50
2023-04-18T09:19:50.513Z,102251.75
2023-04-18T09:22:18.398Z,102250.63
2023-04-18T09:24:57.910Z,102258.25
2023-04-18T09:27:24.738Z,102265.44
2023-04-18T09:29:55.848Z,102263.94
2023-04-18T09:32:27.224Z,102270.81
2023-04-18T09:34:58.307Z,102254.94
2023-04-18T09:37:26.373Z,102263.78
2023-04-18T09:39:53.441Z,102259.94
2023-04-18T09:42:21.291Z,102255.25
2023-04-18T09:45:09.395Z,102254.34
2023-04-18T09:47:37.420Z,102249.94
2023-04-18T09:50:05.822Z,102263.41
2023-04-18T09:52:35.368Z,102259.97
2023-04-18T09:55:04.844Z,102261.53
2023-04-18T09:57:35.341Z,102252.81
2023-04-18T10:00:08.883Z,102262.69
2023-04-18T10:02:47.347Z,102255.59
2023-04-18T10:05:15.589Z,102249.38
2023-04-18T10:07:45.652Z,102258.22
2023-04-18T10:10:13.034Z,102260.09
2023-04-18T10:12:41.408Z,102256.53
2023-04-18T10:15:09.815Z,102253.84
2023-04-18T10:18:15.560Z,102252.00
2023-04-18T10:20:42.675Z,102244.59
2023-04-18T10:23:43.546Z,102254.28
2023-04-18T10:26:11.174Z,102239.25
2023-04-18T10:28:58.259Z,102245.25
2023-04-18T10:31:29.629Z,102245.31
2023-04-18T10:36:30.710Z,102239.00
2023-04-18T10:39:08.970Z,102246.19
2023-04-18T10:41:49.487Z,102240.72
2023-04-18T10:44:18.997Z,102238.09
2023-04-18T10:46:48.927Z,102243.47
2023-04-18T10:49:17.753Z,102241.44
2023-04-18T10:51:45.374Z,102240.41
2023-04-18T10:54:18.721Z,102249.41
2023-04-18T10:56:58.513Z,102247.63
2023-04-18T10:59:30.345Z,102237.69
2023-04-18T11:02:04.252Z,102250.91
2023-04-18T11:04:35.602Z,102257.25
2023-04-18T11:07:02.834Z,102243.81
2023-04-18T11:09:29.639Z,102241.75
2023-04-18T11:12:06.602Z,102249.81
2023-04-18T11:14:45.372Z,102236.63
2023-04-18T11:17:18.330Z,102245.84
2023-04-18T11:19:51.876Z,102238.41
2023-04-18T11:22:19.285Z,102233.84
2023-04-18T11:24:48.975Z,102233.25
2023-04-18T11:27:16.143Z,102214.53
2023-04-18T11:29:43.042Z,102228.66
2023-04-18T11:32:10.266Z,102230.88
2023-04-18T11:34:37.279Z,102234.38
2023-04-18T11:37:08.331Z,102219.41
2023-04-18T11:39:36.575Z,102228.53
2023-04-18T11:42:03.482Z,102239.25
2023-04-18T11:44:35.569Z,102225.94
2023-04-18T11:47:21.869Z,102233.25
2023-04-18T11:49:48.673Z,102218.56
2023-04-18T11:52:17.774Z,102225.47
2023-04-18T11:54:48.113Z,102220.91
2023-04-18T11:57:23.932Z,102226.97
2023-04-18T11:59:57.730Z,102219.19
2023-04-18T12:02:39.326Z,102220.88
2023-04-18T12:05:09.615Z,102221.06
2023-04-18T12:07:41.969Z,102223.53
2023-04-18T12:10:16.061Z,102229.44
2023-04-18T12:12:51.043Z,102212.13
2023-04-18T12:15:19.285Z,102218.22
2023-04-18T12:17:51.094Z,102216.88
2023-04-18T12:20:21.938Z,102215.41
2023-04-18T12:22:56.276Z,102218.16
2023-04-18T12:25:29.292Z,102218.63
2023-04-18T12:28:01.868Z,102207.09
2023-04-18T12:30:31.224Z,102213.47
2023-04-18T12:33:07.345Z,102210.03
2023-04-18T12:35:34.773Z,102218.31
2023-04-18T12:38:07.032Z,102214.28
2023-04-18T12:40:43.818Z,102214.63
2023-04-18T12:43:12.491Z,102217.56
2023-04-18T12:45:42.847Z,102216.56
2023-04-18T12:48:10.028Z,102213.34
2023-04-18T12:50:36.829Z,102206.03
2023-04-18T12:53:06.488Z,102192.41
2023-04-18T12:55:39.865Z,102214.63
2023-04-18T12:58:06.955Z,102223.25
2023-04-18T13:00:35.610Z,102218.66
2023-04-18T13:03:05.394Z,102218.16
2023-04-18T13:05:42.916Z,102199.78
2023-04-18T13:08:16.820Z,102202.88
2023-04-18T13:10:48.121Z,102207.69
2023-04-18T13:13:15.217Z,102205.84
2023-04-18T13:15:42.866Z,102201.94
2023-04-18T13:18:14.703Z,102196.94
2023-04-18T13:20:41.705Z,102189.38
2023-04-18T13:23:18.881Z,102198.25
2023-04-18T13:25:51.024Z,102195.56
2023-04-18T13:28:20.079Z,102191.31
2023-04-18T13:30:49.372Z,102187.81
2023-04-18T13:33:25.856Z,102183.31
2023-04-18T13:35:54.047Z,102185.38
2023-04-18T13:38:21.026Z,102180.38
2023-04-18T13:40:58.080Z,102197.75
2023-04-18T13:43:40.000Z,102180.09
2023-04-18T13:46:07.198Z,102187.16
2023-04-18T13:48:40.211Z,102176.31
2023-04-18T13:51:07.396Z,102182.31
2023-04-18T13:53:38.815Z,102191.75
2023-04-18T13:56:05.995Z,102182.41
2023-04-18T13:58:32.571Z,102188.19
2023-04-18T14:00:59.146Z,102179.56
2023-04-18T14:03:26.532Z,102192.19
2023-04-18T14:05:53.258Z,102181.31
2023-04-18T14:08:19.912Z,102187.56
2023-04-18T14:10:46.522Z,102179.06
2023-04-18T14:13:13.096Z,102182.41
2023-04-18T14:15:39.776Z,102179.41
2023-04-18T14:18:06.537Z,102182.66
2023-04-18T14:20:34.815Z,102176.38
2023-04-18T14:23:01.993Z,102174.31
2023-04-18T14:25:30.357Z,102172.31
2023-04-18T14:28:09.652Z,102178.31
2023-04-18T14:30:37.239Z,102178.75
2023-04-18T14:33:04.208Z,102173.75
2023-04-18T14:35:31.609Z,102159.66
2023-04-18T14:37:58.290Z,102166.59
2023-04-18T14:40:24.938Z,102160.22
2023-04-18T14:42:51.490Z,102157.94
2023-04-18T14:45:18.226Z,102161.84
2023-04-18T14:47:44.903Z,102154.19
2023-04-18T14:50:15.412Z,102154.53
2023-04-18T14:52:42.314Z,102156.66
2023-04-18T14:55:09.825Z,102156.19
2023-04-18T14:57:37.413Z,102144.53
2023-04-18T15:00:07.556Z,102156.75
2023-04-18T15:02:34.501Z,102160.41
2023-04-18T15:05:01.281Z,102154.13
2023-04-18T15:07:27.913Z,102147.78
2023-04-18T15:09:54.625Z,102149.41
2023-04-18T15:12:21.237Z,102141.88
2023-04-18T15:14:47.794Z,102140.28
2023-04-18T15:17:14.396Z,102141.84
2023-04-18T15:19:41.088Z,102138.34
2023-04-18T15:22:07.839Z,102142.44
2023-04-18T15:24:34.608Z,102135.00
2023-04-18T15:27:01.458Z,102141.03
2023-04-18T15:29:28.106Z,102143.44
2023-04-18T15:31:55.249Z,102141.75
2023-04-18T15:34:21.919Z,102144.63
2023-04-18T15:36:51.533Z,102142.44
2023-04-18T15:39:23.679Z,102143.69
2023-04-18T15:41:56.616Z,102146.31
2023-04-18T15:44:23.388Z,102149.03
2023-04-18T15:46:50.790Z,102147.16
2023-04-18T15:49:17.371Z,102145.41
2023-04-18T15:51:44.156Z,102146.84
2023-04-18T15:54:11.050Z,102142.50
2023-04-18T15:56:37.709Z,102152.94
2023-04-18T15:59:06.102Z,102146.22
2023-04-18T16:01:33.241Z,102153.63
2023-04-18T16:03:59.977Z,102143.44
2023-04-18T16:06:27.379Z,102149.22
2023-04-18T16:08:54.005Z,102153.00
2023-04-18T16:11:21.745Z,102144.13
2023-04-18T16:13:48.458Z,102143.00
2023-04-18T16:16:15.200Z,102142.94
2023-04-18T16:18:41.804Z,102144.81
2023-04-18T16:21:08.439Z,102140.13
2023-04-18T16:23:35.072Z,102148.69
2023-04-18T16:26:01.651Z,102142.94
2023-04-18T16:28:29.234Z,102147.34
2023-04-18T16:30:55.995Z,102141.72
2023-04-18T16:33:25.962Z,102143.94
2023-04-18T16:35:53.158Z,102131.78
2023-04-18T16:38:23.402Z,102136.81
2023-04-18T16:40:50.084Z,102136.81
2023-04-18T16:43:16.747Z,102137.41
2023-04-18T16:45:43.354Z,102139.34
2023-04-18T16:48:10.162Z,102138.41
2023-04-18T16:50:36.813Z,102142.91
2023-04-18T16:53:03.476Z,102143.00
2023-04-18T16:55:30.096Z,102141.78
2023-04-18T16:57:56.668Z,102145.13
2023-04-18T17:00:23.399Z,102144.09
2023-04-18T17:02:50.902Z,102151.59
2023-04-18T17:05:18.739Z,102149.16
2023-04-18T17:07:46.077Z,102147.22
2023-04-18T17:10:12.793Z,102155.19
2023-04-18T17:12:39.510Z,102155.13
2023-04-18T17:15:07.022Z,102154.84
2023-04-18T17:17:34.800Z,102153.34
2023-04-18T17:20:01.539Z,102156.38
2023-04-18T17:22:32.335Z,102169.72
2023-04-18T17:24:58.937Z,102160.41
2023-04-18T17:27:28.903Z,102168.19
2023-04-18T17:29:55.750Z,102158.78
2023-04-18T17:32:23.217Z,102162.75
2023-04-18T17:34:49.882Z,102172.00
2023-04-18T17:37:17.186Z,102168.00
2023-04-18T17:39:44.107Z,102176.34
2023-04-18T17:42:11.009Z,102176.94
2023-04-18T17:44:39.843Z,102174.31
2023-04-18T17:47:07.069Z,102177.88
2023-04-18T17:49:35.105Z,102183.97
2023-04-18T17:52:02.450Z,102177.38
2023-04-18T17:54:29.046Z,102176.97
2023-04-18T17:56:56.013Z,102175.78
2023-04-18T17:59:22.668Z,102177.69
2023-04-18T18:01:49.785Z,102184.59
2023-04-18T18:04:16.793Z,102186.59
2023-04-18T18:06:54.673Z,102184.50
2023-04-18T18:09:21.310Z,102190.13
2023-04-18T18:11:47.908Z,102180.69
2023-04-18T18:14:15.527Z,102183.91
2023-04-18T18:16:42.628Z,102186.59
2023-04-18T18:19:09.318Z,102194.59
2023-04-18T18:21:36.528Z,102191.31
2023-04-18T18:24:03.301Z,102193.09
2023-04-18T18:26:32.123Z,102203.16
2023-04-18T18:28:59.028Z,102208.97
2023-04-18T18:31:25.803Z,102204.59
2023-04-18T18:33:52.404Z,102205.22
2023-04-18T18:36:19.116Z,102212.38
2023-04-18T18:38:45.771Z,102213.03
2023-04-18T18:41:12.437Z,102214.03
2023-04-18T18:43:39.116Z,102209.75
2023-04-18T18:46:05.747Z,102223.06
2023-04-18T18:48:32.839Z,102225.34
2023-04-18T18:50:59.487Z,102221.13
2023-04-18T18:53:26.281Z,102220.47
2023-04-18T18:55:53.175Z,102217.47
2023-04-18T18:58:20.155Z,102219.81
2023-04-18T19:00:46.974Z,102223.56
2023-04-18T19:03:13.915Z,102226.72
2023-04-18T19:05:40.692Z,102221.47
2023-04-18T19:08:07.610Z,102228.78
2023-04-18T19:10:34.464Z,102231.34
2023-04-18T19:13:01.401Z,102231.81
2023-04-18T19:15:28.224Z,102244.84
2023-04-18T19:17:56.205Z,102236.44
2023-04-18T19:20:23.678Z,102233.22
2023-04-18T19:22:50.408Z,102242.00
2023-04-18T19:25:17.188Z,102241.28
2023-04-18T19:27:44.765Z,102238.63
2023-04-18T19:30:12.030Z,102234.50
2023-04-18T19:32:38.839Z,102237.34
2023-04-18T19:35:05.857Z,102235.50
2023-04-18T19:37:32.431Z,102240.13
2023-04-18T19:39:59.031Z,102241.56
2023-04-18T19:42:25.622Z,102238.50
2023-04-18T19:44:54.640Z,102234.88
2023-04-18T19:47:29.048Z,102232.13
2023-04-18T19:50:01.726Z,102235.72
2023-04-18T19:52:28.548Z,102234.47
2023-04-18T19:57:51.313Z,102238.97
2023-04-18T20:00:26.272Z,102231.44
2023-04-18T20:02:55.047Z,102230.06
2023-04-18T20:05:25.011Z,102233.81
2023-04-18T20:07:54.302Z,102244.31
2023-04-18T20:10:31.738Z,102224.75
2023-04-18T20:13:01.531Z,102229.41
2023-04-18T20:15:30.745Z,102233.75
2023-04-18T20:18:00.665Z,102236.59
2023-04-18T20:20:29.051Z,102224.09
2023-04-18T20:22:58.460Z,102225.03
2023-04-18T20:25:34.283Z,102208.97
2023-04-18T20:28:03.794Z,102225.38
2023-04-18T20:30:41.864Z,102230.38
2023-04-18T20:33:15.290Z,102233.97
2023-04-18T20:35:44.699Z,102228.44
2023-04-18T20:38:15.254Z,102221.84
2023-04-18T20:40:48.652Z,102228.03
2023-04-18T20:43:19.428Z,102225.09
2023-04-18T20:45:51.702Z,102221.69
2023-04-18T20:48:20.705Z,102232.97
2023-04-18T20:50:51.520Z,102222.13
2023-04-18T20:53:25.241Z,102222.13
2023-04-18T20:55:55.008Z,102228.34
2023-04-18T20:58:27.174Z,102223.22
2023-04-18T21:00:53.968Z,102213.81
2023-04-18T21:03:23.428Z,102223.91
2023-04-18T21:05:52.828Z,102211.19
2023-04-18T21:08:22.100Z,102218.38
2023-04-18T21:10:51.940Z,102217.75
2023-04-18T21:13:21.680Z,102223.59
2023-04-18T21:15:54.085Z,102223.44
2023-04-18T21:18:26.065Z,102234.75
2023-04-18T21:21:01.611Z,102217.47
2023-04-18T21:23:35.832Z,102230.19
2023-04-18T21:26:02.588Z,102220.75
2023-04-18T21:28:32.407Z,102226.47
2023-04-18T21:31:02.345Z,102218.38
2023-04-18T21:33:31.645Z,102212.56
2023-04-18T21:35:58.300Z,102218.75
2023-04-18T21:38:28.432Z,102208.41
2023-04-18T21:41:00.871Z,102206.38
2023-04-18T21:43:30.149Z,102221.38
2023-04-18T21:45:59.126Z,102217.94
2023-04-18T21:48:26.063Z,102213.38
2023-04-18T21:50:57.264Z,102216.38
2023-04-18T21:53:24.160Z,102209.56
2023-04-18T21:55:50.830Z,102209.34
2023-04-18T21:58:19.398Z,102224.19
2023-04-18T22:00:53.988Z,102203.06
2023-04-18T22:03:26.638Z,102196.97
2023-04-18T22:05:53.543Z,102212.47
2023-04-18T22:08:20.428Z,102206.91
2023-04-18T22:10:53.242Z,102218.19
2023-04-18T22:13:28.582Z,102225.13
2023-04-18T22:16:01.699Z,102209.94
2023-04-18T22:18:37.773Z,102217.31
2023-04-18T22:21:07.264Z,102206.53
2023-04-18T22:23:36.056Z,102199.63
2023-04-18T22:26:06.765Z,102211.13
2023-04-18T22:28:38.193Z,102191.25
2023-04-18T22:31:07.045Z,102189.59
2023-04-18T22:33:36.855Z,102181.00
2023-04-18T22:36:05.527Z,102190.56
2023-04-18T22:38:34.668Z,102186.34
2023-04-18T22:41:03.916Z,102184.06
2023-04-18T22:43:32.918Z,102178.59
2023-04-18T22:46:05.181Z,102182.38
2023-04-18T22:48:34.988Z,102174.03
2023-04-18T22:51:07.356Z,102186.88
2023-04-18T22:53:36.060Z,102182.34
2023-04-18T22:56:07.877Z,102174.78
2023-04-18T22:58:36.390Z,102175.34
2023-04-18T23:01:05.389Z,102171.88
2023-04-18T23:03:37.334Z,102170.31
2023-04-18T23:06:06.590Z,102165.00
2023-04-18T23:08:33.281Z,102163.16
2023-04-18T23:11:01.220Z,102163.69
2023-04-18T23:13:30.120Z,102175.00
2023-04-18T23:16:00.010Z,102166.31
2023-04-18T23:18:32.371Z,102166.28
2023-04-18T23:20:59.877Z,102173.47
2023-04-18T23:23:28.165Z,102169.13
2023-04-18T23:25:55.137Z,102175.03
2023-04-18T23:28:23.760Z,102168.25
2023-04-18T23:30:57.648Z,102173.78
2023-04-18T23:33:27.746Z,102171.50
2023-04-18T23:35:57.715Z,102159.56
2023-04-18T23:38:29.987Z,102179.28
2023-04-18T23:40:56.690Z,102170.16
2023-04-18T23:43:27.426Z,102159.03
2023-04-18T23:45:55.285Z,102168.41
2023-04-18T23:48:25.071Z,102169.97
2023-04-18T23:50:54.537Z,102165.69
2023-04-18T23:53:24.675Z,102153.50
2023-04-18T23:55:56.246Z,102165.44
2023-04-18T23:58:24.186Z,102156.03
